Time;durP1;ratioP1;P1;durP2;ratioP2;P2;SDS_P1;SDS_P2;PMS_P1;PMS_P2;Temp;Humidity;BMP_temperature;BMP_pressure;BME280_temperature;BME280_humidity;BME280_pressure;Samples;Min_cycle;Max_cycle;Signal;HPM_P1;HPM_P2
2022/06/29 00:00:15;;;;;;;4.90;4.00;;;;;;;23.80;100.00;100277.84;4423696;32;20155;-74
2022/06/29 00:02:43;;;;;;;3.87;3.33;;;;;;;23.86;100.00;100277.44;4423983;32;20171;-74
2022/06/29 00:05:13;;;;;;;5.05;3.75;;;;;;;23.93;100.00;100269.81;4423545;32;20473;-74
2022/06/29 00:07:41;;;;;;;7.15;4.00;;;;;;;23.88;100.00;100269.25;4423602;32;20183;-74
2022/06/29 00:10:11;;;;;;;9.15;3.42;;;;;;;23.82;100.00;100265.19;4423728;32;20187;-74
2022/06/29 00:12:39;;;;;;;8.38;3.37;;;;;;;23.75;100.00;100256.66;4423585;32;20135;-72
2022/06/29 00:15:07;;;;;;;4.75;3.30;;;;;;;23.72;100.00;100259.56;4423920;32;20093;-72
2022/06/29 00:17:34;;;;;;;3.10;2.90;;;;;;;23.79;100.00;100266.25;4423592;32;20080;-72
2022/06/29 00:20:04;;;;;;;8.68;3.62;;;;;;;23.81;100.00;100264.28;4423800;32;20166;-72
2022/06/29 00:22:31;;;;;;;4.47;3.08;;;;;;;23.78;100.00;100261.84;4422442;32;20410;-72
2022/06/29 00:24:59;;;;;;;4.78;3.65;;;;;;;23.71;100.00;100256.94;4423630;32;20112;-72
2022/06/29 00:27:26;;;;;;;3.95;3.45;;;;;;;23.61;100.00;100262.94;4423651;32;20119;-72
2022/06/29 00:29:53;;;;;;;7.15;3.72;;;;;;;23.60;100.00;100261.22;4423519;32;20098;-72
2022/06/29 00:32:21;;;;;;;4.57;3.50;;;;;;;23.60;100.00;100263.03;4423602;32;20106;-72
2022/06/29 00:34:49;;;;;;;5.20;3.65;;;;;;;23.62;100.00;100255.75;4423588;32;20560;-72
2022/06/29 00:37:16;;;;;;;11.50;3.78;;;;;;;23.58;100.00;100241.63;4423525;32;20514;-72
2022/06/29 00:39:44;;;;;;;7.75;3.60;;;;;;;23.54;100.00;100237.44;4423528;32;20097;-72
2022/06/29 00:42:11;;;;;;;4.62;3.70;;;;;;;23.54;100.00;100236.56;4423485;32;20790;-72
2022/06/29 00:44:38;;;;;;;7.45;4.15;;;;;;;23.51;100.00;100236.78;4423479;32;20097;-72
2022/06/29 00:47:06;;;;;;;4.65;3.60;;;;;;;23.47;100.00;100232.59;4423450;32;20529;-72
2022/06/29 00:49:34;;;;;;;3.85;3.55;;;;;;;23.41;100.00;100233.00;4423282;32;20097;-72
2022/06/29 00:52:06;;;;;;;4.05;3.62;;;;;;;23.30;100.00;100233.72;4423333;32;20604;-72
2022/06/29 00:54:53;;;;;;;5.95;3.80;;;;;;;23.24;100.00;100237.66;4423412;32;20137;-72
2022/06/29 00:57:27;;;;;;;6.55;4.07;;;;;;;22.95;100.00;100238.75;4423363;32;20097;-72
2022/06/29 00:59:57;;;;;;;6.18;4.72;;;;;;;23.12;100.00;100236.66;4423383;32;20514;-72
2022/06/29 01:02:36;;;;;;;8.60;4.87;;;;;;;23.11;100.00;100236.78;4423273;32;20135;-72
2022/06/29 01:05:06;;;;;;;7.35;4.78;;;;;;;23.10;100.00;100235.91;4423180;32;20086;-72
2022/06/29 01:07:34;;;;;;;9.65;4.03;;;;;;;23.08;100.00;100232.47;4423104;32;20105;-72
2022/06/29 01:10:01;;;;;;;6.60;5.00;;;;;;;22.99;100.00;100229.50;4423223;32;20098;-72
2022/06/29 01:12:29;;;;;;;6.35;5.18;;;;;;;23.19;100.00;100234.44;4423174;32;20090;-72
2022/06/29 01:14:56;;;;;;;11.68;5.60;;;;;;;23.10;100.00;100232.34;4423141;32;20081;-72
2022/06/29 01:17:24;;;;;;;14.07;6.57;;;;;;;23.09;100.00;100230.63;4423084;32;20120;-72
2022/06/29 01:19:52;;;;;;;9.93;5.50;;;;;;;23.11;100.00;100240.31;4422757;32;20117;-72
2022/06/29 01:22:21;;;;;;;6.28;5.10;;;;;;;23.07;100.00;100240.59;4423074;32;20105;-72
2022/06/29 01:24:50;;;;;;;8.52;5.60;;;;;;;23.02;100.00;100237.37;4422961;32;20153;-72
2022/06/29 01:27:19;;;;;;;9.48;5.40;;;;;;;22.92;100.00;100237.09;4423040;32;20501;-72
2022/06/29 01:29:47;;;;;;;7.35;5.07;;;;;;;22.89;100.00;100248.03;4422818;32;20152;-72
2022/06/29 01:32:14;;;;;;;10.45;5.20;;;;;;;22.90;100.00;100239.88;4422909;32;20124;-72
2022/06/29 01:34:42;;;;;;;8.15;5.40;;;;;;;22.85;100.00;100239.31;4422631;32;20148;-72
2022/06/29 01:37:09;;;;;;;8.75;4.93;;;;;;;22.76;100.00;100234.53;4422742;32;20123;-72
2022/06/29 01:39:37;;;;;;;5.55;4.60;;;;;;;22.86;100.00;100224.03;4422611;32;20097;-72
2022/06/29 01:42:05;;;;;;;6.18;4.60;;;;;;;22.90;100.00;100218.38;4422703;32;20181;-72
2022/06/29 01:44:35;;;;;;;6.90;4.82;;;;;;;22.93;100.00;100222.72;4422941;32;20226;-72
2022/06/29 01:47:05;;;;;;;5.97;4.60;;;;;;;22.88;100.00;100214.06;4422527;32;20456;-72
2022/06/29 01:49:33;;;;;;;7.32;4.72;;;;;;;22.82;100.00;100209.09;4422689;32;20174;-72
2022/06/29 01:52:00;;;;;;;8.43;5.22;;;;;;;22.82;100.00;100203.72;4422655;32;20110;-72
2022/06/29 01:54:27;;;;;;;7.85;4.28;;;;;;;22.84;100.00;100207.19;4422514;32;20159;-72
2022/06/29 01:56:54;;;;;;;7.90;5.20;;;;;;;22.70;100.00;100215.28;4422447;32;20596;-72
2022/06/29 01:59:22;;;;;;;9.43;5.20;;;;;;;22.69;100.00;100211.72;4422522;32;20096;-72
2022/06/29 02:01:49;;;;;;;6.65;4.97;;;;;;;23.05;100.00;100213.00;4422460;32;20577;-72
2022/06/29 02:04:17;;;;;;;7.32;4.80;;;;;;;22.68;100.00;100210.00;4422344;32;20184;-72
2022/06/29 02:06:44;;;;;;;6.97;4.78;;;;;;;22.60;100.00;100206.94;4422447;32;20105;-72
2022/06/29 02:09:11;;;;;;;6.93;4.82;;;;;;;22.51;100.00;100211.09;4422246;32;20117;-72
2022/06/29 02:11:40;;;;;;;5.87;4.85;;;;;;;22.40;100.00;100203.72;4422369;32;20105;-72
2022/06/29 02:14:07;;;;;;;8.63;4.80;;;;;;;22.46;100.00;100213.19;4422308;32;20672;-72
2022/06/29 02:16:34;;;;;;;10.57;4.65;;;;;;;22.46;100.00;100205.16;4422314;32;20128;-72
2022/06/29 02:19:02;;;;;;;7.82;4.90;;;;;;;22.47;100.00;100206.84;4422030;32;20518;-72
2022/06/29 02:21:30;;;;;;;5.30;4.90;;;;;;;22.42;100.00;100209.00;4405112;32;20128;-72
2022/06/29 02:23:57;;;;;;;7.62;4.65;;;;;;;22.43;100.00;100218.75;4406712;32;20708;-72
2022/06/29 02:26:24;;;;;;;5.80;5.07;;;;;;;22.41;100.00;100218.88;4406765;32;20081;-72
2022/06/29 02:28:51;;;;;;;5.85;4.40;;;;;;;22.43;100.00;100214.25;4406848;32;20102;-72
2022/06/29 02:36:50;;;;;;;10.07;5.20;;;;;;;22.35;100.00;100202.28;4406690;32;20604;-72
2022/06/29 02:39:17;;;;;;;6.37;5.10;;;;;;;22.32;100.00;100206.03;4406468;32;20094;-72
2022/06/29 02:41:44;;;;;;;5.37;4.90;;;;;;;22.33;100.00;100206.87;4406548;32;20509;-72
2022/06/29 02:44:12;;;;;;;5.60;5.05;;;;;;;22.33;100.00;100204.19;4406614;32;20082;-72
2022/06/29 02:46:39;;;;;;;8.13;6.00;;;;;;;22.27;100.00;100208.16;4408296;32;20177;-72
2022/06/29 02:49:06;;;;;;;5.97;5.20;;;;;;;22.29;100.00;100208.91;4408815;32;20132;-72
2022/06/29 02:51:33;;;;;;;8.80;5.00;;;;;;;22.30;100.00;100207.97;4408882;32;20751;-72
2022/06/29 02:54:00;;;;;;;6.50;4.53;;;;;;;22.34;100.00;100214.84;4408740;32;20601;-72
2022/06/29 02:56:28;;;;;;;9.95;4.97;;;;;;;22.35;100.00;100213.87;4407256;32;20094;-72
2022/06/29 02:58:55;;;;;;;10.98;5.10;;;;;;;22.37;100.00;100211.97;4408609;32;20129;-72
2022/06/29 03:01:22;;;;;;;8.70;5.40;;;;;;;22.38;100.00;100211.00;4408769;32;20446;-72
2022/06/29 03:03:50;;;;;;;6.37;5.10;;;;;;;22.40;100.00;100214.47;4408791;32;20193;-72
2022/06/29 03:06:17;;;;;;;8.40;4.93;;;;;;;22.44;100.00;100209.78;4408964;32;20093;-72
2022/06/29 03:08:44;;;;;;;11.07;4.72;;;;;;;22.49;100.00;100209.47;4408710;32;20514;-72
2022/06/29 03:11:11;;;;;;;7.28;5.00;;;;;;;22.55;100.00;100206.41;4408650;32;20109;-72
2022/06/29 03:13:38;;;;;;;7.10;4.75;;;;;;;22.57;100.00;100216.06;4408809;32;20497;-72
2022/06/29 03:16:06;;;;;;;6.07;4.15;;;;;;;22.58;100.00;100215.12;4408955;32;20125;-72
2022/06/29 03:18:33;;;;;;;8.90;4.20;;;;;;;22.67;100.00;100210.97;4408798;32;20431;-72
2022/06/29 03:21:00;;;;;;;5.70;4.20;;;;;;;22.77;100.00;100219.28;4417028;32;20145;-72
2022/06/29 03:23:27;;;;;;;10.40;4.15;;;;;;;22.77;100.00;100222.84;4423761;32;20528;-72
2022/06/29 03:25:55;;;;;;;5.57;4.15;;;;;;;22.93;100.00;100224.53;4423939;32;20436;-72
2022/06/29 03:28:22;;;;;;;7.47;4.28;;;;;;;22.98;100.00;100215.22;4423832;32;20163;-72
2022/06/29 03:30:49;;;;;;;7.75;4.37;;;;;;;23.09;100.00;100218.06;4423794;32;20123;-72
2022/06/29 03:33:16;;;;;;;8.00;3.85;;;;;;;23.24;100.00;100215.31;4423867;32;20186;-72
2022/06/29 03:35:44;;;;;;;4.43;3.67;;;;;;;23.26;100.00;100221.44;4423910;32;20090;-72
2022/06/29 03:38:11;;;;;;;4.75;4.05;;;;;;;23.30;100.00;100221.13;4423669;32;20504;-72
2022/06/29 03:40:38;;;;;;;6.25;4.28;;;;;;;23.36;100.00;100215.34;4423833;32;20156;-72
2022/06/29 03:43:05;;;;;;;4.70;4.15;;;;;;;23.46;100.00;100223.63;4423793;32;20328;-72
2022/06/29 03:45:33;;;;;;;5.03;3.80;;;;;;;23.52;100.00;100219.66;4423770;32;20496;-72
2022/06/29 03:48:00;;;;;;;8.57;4.30;;;;;;;23.60;100.00;100222.69;4423606;32;20128;-72
2022/06/29 03:50:27;;;;;;;8.30;4.05;;;;;;;23.67;100.00;100228.50;4423654;32;20101;-72
2022/06/29 03:52:54;;;;;;;7.30;4.30;;;;;;;23.75;100.00;100232.44;4423668;32;20102;-72
2022/06/29 03:55:22;;;;;;;7.20;4.20;;;;;;;23.81;100.00;100240.06;4423790;32;20195;-72
2022/06/29 03:57:49;;;;;;;7.57;4.00;;;;;;;23.89;100.00;100239.56;4424183;32;20119;-72
2022/06/29 04:00:17;;;;;;;7.62;4.25;;;;;;;23.97;100.00;100236.34;4423302;32;20112;-72
2022/06/29 04:02:45;;;;;;;6.12;4.15;;;;;;;24.05;100.00;100228.56;4411019;32;20158;-72
2022/06/29 04:05:13;;;;;;;5.80;3.87;;;;;;;24.08;100.00;100214.91;4393593;32;20106;-72
2022/06/29 04:07:40;;;;;;;13.23;4.87;;;;;;;24.12;100.00;100213.72;4397931;32;20131;-72
2022/06/29 04:10:08;;;;;;;12.18;4.40;;;;;;;24.17;100.00;100214.25;4407988;32;20140;-72
2022/06/29 04:12:36;;;;;;;15.57;4.22;;;;;;;24.22;100.00;100219.31;4408129;32;20498;-72
2022/06/29 04:15:05;;;;;;;6.18;3.97;;;;;;;24.27;100.00;100218.00;4408166;32;20090;-72
2022/06/29 04:17:33;;;;;;;4.97;4.28;;;;;;;24.36;100.00;100229.09;4406297;32;20161;-72
2022/06/29 04:20:04;;;;;;;11.93;4.68;;;;;;;24.36;100.00;100227.25;4408132;32;20840;-72
2022/06/29 04:22:31;;;;;;;9.82;4.35;;;;;;;24.41;100.00;100230.50;4408128;32;20151;-72
2022/06/29 04:24:59;;;;;;;7.35;4.53;;;;;;;24.48;100.00;100225.53;4408049;32;20148;-72
2022/06/29 04:27:26;;;;;;;11.05;4.45;;;;;;;24.49;100.00;100232.66;4408229;32;20101;-72
2022/06/29 04:29:53;;;;;;;6.90;4.43;;;;;;;24.58;100.00;100229.28;4408011;32;20155;-72
2022/06/29 04:32:21;;;;;;;7.85;4.97;;;;;;;24.59;100.00;100222.91;4408113;32;20082;-72
2022/06/29 04:34:48;;;;;;;8.80;4.80;;;;;;;24.69;100.00;100228.50;4408214;32;20414;-72
2022/06/29 04:37:15;;;;;;;6.90;4.78;;;;;;;24.77;100.00;100228.78;4407848;32;20818;-72
2022/06/29 04:39:42;;;;;;;5.57;4.90;;;;;;;24.89;100.00;100235.12;4407755;32;20165;-72
2022/06/29 04:42:09;;;;;;;8.43;4.62;;;;;;;24.93;100.00;100231.22;4408109;32;20522;-72
2022/06/29 04:44:44;;;;;;;9.30;4.97;;;;;;;25.00;100.00;100227.97;4394652;32;20503;-72
2022/06/29 04:47:11;;;;;;;6.95;4.47;;;;;;;24.97;100.00;100232.72;4407771;32;20106;-72
2022/06/29 04:49:39;;;;;;;8.80;4.62;;;;;;;25.01;100.00;100224.28;4407934;32;20097;-72
2022/06/29 04:52:06;;;;;;;9.65;4.90;;;;;;;25.07;100.00;100227.50;4393411;32;20112;-72
2022/06/29 04:54:33;;;;;;;10.38;4.93;;;;;;;25.17;100.00;100228.56;4407954;32;20119;-72
2022/06/29 04:57:00;;;;;;;10.00;4.80;;;;;;;25.26;100.00;100234.13;4399068;32;20152;-72
2022/06/29 04:59:28;;;;;;;6.10;4.40;;;;;;;25.31;100.00;100227.53;4392570;32;20537;-72
2022/06/29 05:01:55;;;;;;;9.40;4.97;;;;;;;25.44;100.00;100234.59;4392390;32;20148;-72
2022/06/29 05:04:22;;;;;;;10.57;5.00;;;;;;;25.54;100.00;100240.09;4392622;32;20090;-72
2022/06/29 05:06:50;;;;;;;14.27;5.18;;;;;;;25.62;100.00;100235.00;4392512;32;20191;-72
2022/06/29 05:09:17;;;;;;;6.95;4.87;;;;;;;25.75;100.00;100230.34;4391544;32;20137;-72
2022/06/29 05:11:44;;;;;;;8.55;4.90;;;;;;;25.83;100.00;100232.53;4392946;32;20086;-72
2022/06/29 05:14:12;;;;;;;19.50;5.10;;;;;;;25.96;100.00;100229.69;4392347;32;20094;-71
2022/06/29 05:16:39;;;;;;;8.30;5.05;;;;;;;26.08;100.00;100241.38;4392298;32;20094;-71
2022/06/29 05:19:06;;;;;;;12.18;4.65;;;;;;;26.22;98.65;100233.91;4392993;32;20127;-71
2022/06/29 05:21:34;;;;;;;6.97;4.32;;;;;;;26.30;97.24;100240.53;4404230;32;20177;-71
2022/06/29 05:24:01;;;;;;;9.63;4.60;;;;;;;26.36;96.43;100231.94;4407522;32;20086;-71
2022/06/29 05:26:35;;;;;;;9.02;4.97;;;;;;;26.41;95.12;100230.59;4407132;32;20465;-71
2022/06/29 05:29:02;;;;;;;10.95;4.70;;;;;;;26.55;95.03;100236.75;4405943;32;20110;-71
2022/06/29 05:31:31;;;;;;;30.02;5.30;;;;;;;26.73;94.81;100240.66;4410955;32;20113;-71
2022/06/29 05:33:58;;;;;;;10.65;4.55;;;;;;;26.87;93.78;100245.78;4410166;32;20101;-71
2022/06/29 05:36:25;;;;;;;8.48;4.10;;;;;;;26.98;92.57;100225.97;4413120;32;20161;-71
2022/06/29 05:38:52;;;;;;;10.90;4.72;;;;;;;27.05;90.85;100238.00;4410324;32;20113;-71
2022/06/29 05:41:20;;;;;;;20.58;5.00;;;;;;;27.14;90.90;100231.03;4411411;32;20449;-71
2022/06/29 05:43:51;;;;;;;18.83;4.82;;;;;;;27.26;90.21;100238.09;4411683;32;20936;-71
2022/06/29 05:46:22;;;;;;;5.40;4.57;;;;;;;27.39;89.03;100227.09;4410527;32;20548;-71
2022/06/29 05:48:50;;;;;;;37.95;8.07;;;;;;;27.44;88.93;100224.84;4411048;32;20120;-71
2022/06/29 05:51:17;;;;;;;8.07;4.80;;;;;;;27.56;88.45;100220.22;4411763;32;20487;-71
2022/06/29 05:53:44;;;;;;;18.75;5.00;;;;;;;27.59;86.81;100220.81;4411125;32;20149;-71
2022/06/29 05:56:12;;;;;;;9.15;4.25;;;;;;;27.58;85.02;100219.13;4409417;32;20151;-71
2022/06/29 05:58:39;;;;;;;11.70;5.95;;;;;;;27.63;85.23;100218.72;4410839;32;20196;-71
2022/06/29 06:01:09;;;;;;;9.55;4.75;;;;;;;27.75;84.91;100217.72;4409157;32;20356;-71
2022/06/29 06:03:37;;;;;;;5.85;4.50;;;;;;;27.87;84.84;100223.91;4408292;32;20145;-71
2022/06/29 06:06:04;;;;;;;19.60;4.75;;;;;;;27.90;82.86;100215.50;4409618;32;20453;-71
2022/06/29 06:08:31;;;;;;;14.30;4.70;;;;;;;28.02;82.10;100214.44;4409484;32;20113;-71
2022/06/29 06:10:59;;;;;;;6.32;4.28;;;;;;;28.18;81.89;100215.81;4398092;32;20192;-71
2022/06/29 06:13:26;;;;;;;11.45;4.43;;;;;;;28.23;81.24;100218.94;4407884;32;20105;-71
2022/06/29 06:15:53;;;;;;;8.57;5.10;;;;;;;28.20;80.33;100217.41;4409053;32;20097;-71
2022/06/29 06:18:20;;;;;;;10.65;5.43;;;;;;;28.33;80.25;100209.87;4410537;32;20116;-71
2022/06/29 06:20:48;;;;;;;9.75;4.50;;;;;;;28.40;80.97;100214.78;4412818;32;20495;-71
2022/06/29 06:23:15;;;;;;;8.25;4.90;;;;;;;28.53;79.72;100218.97;4413308;32;20105;-71
2022/06/29 06:25:42;;;;;;;5.87;4.62;;;;;;;28.53;79.19;100216.25;4414440;32;20105;-71
2022/06/29 06:28:09;;;;;;;27.10;6.00;;;;;;;28.57;79.05;100220.41;4412852;32;20112;-71
2022/06/29 06:30:37;;;;;;;16.33;4.85;;;;;;;28.72;78.49;100210.03;4414384;32;20086;-71
2022/06/29 06:33:04;;;;;;;10.32;4.82;;;;;;;28.62;78.25;100216.41;4412948;32;20157;-71
2022/06/29 06:35:32;;;;;;;14.02;5.28;;;;;;;28.74;79.13;100218.03;4414318;32;20484;-71
2022/06/29 06:38:01;;;;;;;9.73;4.53;;;;;;;28.95;78.68;100207.94;4412916;32;20132;-71
2022/06/29 06:43:15;;;;;;;13.45;4.75;;;;;;;29.06;76.61;100212.41;4413908;32;20144;-71
2022/06/29 06:45:42;;;;;;;7.37;4.37;;;;;;;29.16;75.67;100207.00;4413171;32;20102;-71
2022/06/29 06:48:09;;;;;;;13.43;5.18;;;;;;;29.27;76.71;100201.41;4413561;32;20110;-72
2022/06/29 06:50:36;;;;;;;13.00;4.78;;;;;;;29.42;75.54;100199.97;4409360;32;20171;-71
2022/06/29 06:53:04;;;;;;;11.70;4.87;;;;;;;29.47;74.42;100195.00;4408752;32;20093;-72
2022/06/29 06:55:32;;;;;;;13.27;5.10;;;;;;;29.41;73.87;100198.28;4409700;32;20094;-71
2022/06/29 06:57:59;;;;;;;11.82;4.80;;;;;;;29.48;74.37;100199.41;4409426;32;20101;-71
2022/06/29 07:00:26;;;;;;;10.93;5.57;;;;;;;29.60;74.18;100194.69;4409179;32;20491;-71
2022/06/29 07:02:53;;;;;;;20.75;6.25;;;;;;;29.71;72.89;100189.09;4409401;32;20097;-72
2022/06/29 07:05:21;;;;;;;6.95;5.30;;;;;;;29.85;71.16;100186.94;4409659;32;20097;-72
2022/06/29 07:07:48;;;;;;;7.80;4.65;;;;;;;29.95;71.19;100188.63;4409210;32;20110;-72
2022/06/29 07:10:15;;;;;;;19.23;5.40;;;;;;;30.02;72.16;100191.59;4409078;32;20105;-71
2022/06/29 07:12:42;;;;;;;8.75;4.53;;;;;;;30.07;71.25;100189.31;4409627;32;20102;-72
2022/06/29 07:15:10;;;;;;;14.82;4.95;;;;;;;30.27;71.20;100181.09;4409383;32;20168;-73
2022/06/29 07:17:37;;;;;;;9.57;4.55;;;;;;;30.45;68.26;100177.41;4409498;32;20105;-72
2022/06/29 07:20:06;;;;;;;6.05;3.97;;;;;;;30.72;67.20;100179.25;4409294;32;20481;-73
2022/06/29 07:22:34;;;;;;;11.35;4.22;;;;;;;30.89;67.06;100168.59;4397143;32;20160;-73
2022/06/29 07:25:01;;;;;;;14.20;4.22;;;;;;;31.01;64.38;100171.94;4409121;32;20120;-73
2022/06/29 07:27:28;;;;;;;11.57;4.35;;;;;;;31.14;64.18;100175.13;4408960;32;20183;-72
2022/06/29 07:29:56;;;;;;;14.25;4.28;;;;;;;31.28;63.02;100180.03;4408072;32;20138;-73
2022/06/29 07:32:23;;;;;;;10.93;4.15;;;;;;;31.36;62.29;100180.13;4407773;32;20089;-73
2022/06/29 07:34:50;;;;;;;6.57;4.15;;;;;;;31.67;62.04;100176.94;4408409;32;20175;-73
2022/06/29 07:37:17;;;;;;;13.20;4.45;;;;;;;31.67;60.00;100174.22;4408250;32;20378;-74
2022/06/29 07:39:45;;;;;;;8.77;3.83;;;;;;;31.77;61.03;100179.53;4394071;32;20139;-73
2022/06/29 07:42:35;;;;;;;8.57;4.12;;;;;;;31.88;61.37;100180.19;4396265;32;20093;-73
2022/06/29 07:45:03;;;;;;;16.52;4.40;;;;;;;32.07;57.91;100183.69;4407970;32;20482;-72
2022/06/29 07:47:31;;;;;;;10.45;4.40;;;;;;;32.14;57.19;100179.31;4408588;32;20508;-73
2022/06/29 07:49:59;;;;;;;16.17;4.30;;;;;;;32.40;56.50;100178.38;4399034;32;20086;-72
2022/06/29 07:52:26;;;;;;;8.60;4.22;;;;;;;32.48;56.86;100173.03;4399851;32;20118;-73
2022/06/29 07:54:53;;;;;;;7.55;4.05;;;;;;;32.47;56.06;100174.88;4406647;32;20130;-73
2022/06/29 07:57:21;;;;;;;20.85;5.00;;;;;;;32.44;57.58;100164.31;4407886;32;20456;-72
2022/06/29 07:59:48;;;;;;;10.65;4.25;;;;;;;32.60;57.10;100179.87;4406695;32;20562;-72
2022/06/29 08:02:15;;;;;;;13.38;4.70;;;;;;;32.76;55.49;100179.91;4407916;32;20102;-72
2022/06/29 08:04:43;;;;;;;14.80;4.85;;;;;;;33.05;56.50;100170.44;4406970;32;20086;-72
2022/06/29 08:07:30;;;;;;;23.58;4.65;;;;;;;33.21;54.31;100170.44;4406928;32;20124;-73
2022/06/29 08:09:57;;;;;;;8.48;4.30;;;;;;;33.35;54.93;100168.91;4408486;32;20147;-73
2022/06/29 08:12:24;;;;;;;19.83;4.95;;;;;;;33.37;54.94;100171.50;4406989;32;20094;-73
2022/06/29 08:14:52;;;;;;;13.62;4.15;;;;;;;33.39;53.88;100164.81;4397272;32;20459;-73
2022/06/29 08:17:20;;;;;;;23.17;4.55;;;;;;;33.43;52.30;100168.06;4393193;32;20101;-73
2022/06/29 08:19:47;;;;;;;8.98;3.83;;;;;;;33.68;50.55;100161.59;4393030;32;20151;-73
2022/06/29 08:22:14;;;;;;;12.20;4.30;;;;;;;33.91;50.32;100169.06;4407528;32;20116;-73
2022/06/29 08:24:42;;;;;;;8.18;3.62;;;;;;;34.08;49.69;100172.63;4408050;32;20152;-73
2022/06/29 08:27:09;;;;;;;10.32;4.40;;;;;;;34.13;49.54;100165.59;4407943;32;20185;-73
2022/06/29 08:29:56;;;;;;;6.87;3.53;;;;;;;34.34;48.08;100167.72;4408080;32;20070;-73
2022/06/29 08:32:23;;;;;;;19.73;4.80;;;;;;;34.39;47.94;100161.75;4407838;32;20487;-72
2022/06/29 08:34:51;;;;;;;7.65;3.78;;;;;;;34.24;47.83;100162.50;4407991;32;20102;-72
2022/06/29 08:37:19;;;;;;;6.95;3.50;;;;;;;34.48;46.20;100155.19;4408058;32;20174;-72
2022/06/29 08:39:46;;;;;;;8.68;3.50;;;;;;;34.72;45.98;100155.09;4407060;32;20575;-72
2022/06/29 08:42:15;;;;;;;8.40;3.87;;;;;;;34.71;45.49;100156.13;4407953;32;20128;-72
2022/06/29 08:44:43;;;;;;;5.72;3.45;;;;;;;34.81;44.46;100147.69;4405438;32;20101;-72
2022/06/29 08:47:10;;;;;;;16.92;4.25;;;;;;;34.90;43.70;100151.19;4405660;32;20109;-73
2022/06/29 08:49:38;;;;;;;5.18;3.12;;;;;;;35.12;43.93;100153.13;4407524;32;20151;-70
2022/06/29 08:52:08;;;;;;;5.90;3.28;;;;;;;35.08;43.37;100154.53;4407766;32;20136;-70
2022/06/29 08:54:43;;;;;;;18.92;5.15;;;;;;;35.19;43.68;100154.09;4407507;32;20140;-71
2022/06/29 08:57:11;;;;;;;10.90;3.40;;;;;;;35.42;43.44;100154.06;4406138;32;20089;-71
2022/06/29 08:59:58;;;;;;;9.27;4.80;;;;;;;35.62;43.78;100154.44;4386542;32;20264;-71
2022/06/29 09:02:29;;;;;;;10.15;3.60;;;;;;;35.44;42.87;100153.88;4374617;32;20156;-71
2022/06/29 09:04:57;;;;;;;7.85;3.10;;;;;;;35.55;43.89;100149.84;4387168;32;20531;-71
2022/06/29 09:07:24;;;;;;;5.22;3.00;;;;;;;35.58;41.95;100144.84;4387488;32;20122;-71
2022/06/29 09:10:06;;;;;;;6.75;3.37;;;;;;;35.41;41.42;100146.06;4383902;32;20106;-71
2022/06/29 09:12:34;;;;;;;14.05;3.80;;;;;;;35.67;42.51;100145.66;4381261;32;20132;-71
2022/06/29 09:15:04;;;;;;;7.50;3.50;;;;;;;36.01;42.80;100145.13;4378377;32;20107;-71
2022/06/29 09:17:32;;;;;;;9.38;3.03;;;;;;;36.03;41.34;100143.03;4380870;32;20175;-71
2022/06/29 09:20:00;;;;;;;9.73;3.10;;;;;;;36.02;40.15;100149.56;4381850;32;20132;-71
2022/06/29 09:22:52;;;;;;;5.95;2.80;;;;;;;36.20;39.95;100138.22;4380289;32;20160;-71
2022/06/29 09:25:29;;;;;;;9.00;3.15;;;;;;;35.81;40.64;100130.25;4381536;32;20126;-71
2022/06/29 09:27:57;;;;;;;8.60;3.12;;;;;;;36.15;40.70;100124.19;4384717;32;20232;-71
2022/06/29 09:30:28;;;;;;;17.50;3.25;;;;;;;36.73;40.22;100136.13;4393195;32;20093;-71
2022/06/29 09:33:02;;;;;;;6.87;3.00;;;;;;;36.76;39.50;100124.78;4407771;32;20111;-71
2022/06/29 09:35:30;;;;;;;8.00;2.97;;;;;;;37.06;37.98;100125.50;4408198;32;20470;-71
2022/06/29 09:38:23;;;;;;;9.07;2.60;;;;;;;37.00;37.92;100125.44;4405595;32;20180;-71
2022/06/29 09:41:08;;;;;;;10.70;3.25;;;;;;;36.49;38.95;100126.34;4402455;32;20108;-71
2022/06/29 09:43:43;;;;;;;18.67;3.50;;;;;;;36.26;39.43;100131.13;4402575;32;20172;-70
2022/06/29 09:46:15;;;;;;;12.68;3.03;;;;;;;36.32;39.68;100127.59;4402106;32;20094;-71
2022/06/29 09:48:44;;;;;;;33.28;4.12;;;;;;;36.43;38.88;100118.84;4405299;32;20409;-71
2022/06/29 09:51:30;;;;;;;6.03;2.30;;;;;;;36.70;36.33;100117.31;4407717;32;20200;-71
2022/06/29 09:54:03;;;;;;;8.30;2.78;;;;;;;36.76;35.36;100113.78;4398068;32;20152;-70
2022/06/29 09:56:31;;;;;;;6.45;2.53;;;;;;;36.69;34.70;100112.88;4386327;32;20093;-71
2022/06/29 09:59:00;;;;;;;15.77;2.60;;;;;;;36.74;35.10;100099.38;4409566;32;20098;-71
2022/06/29 10:04:15;;;;;;;5.30;2.25;;;;;;;37.07;34.86;100107.16;4397050;32;20089;-71
2022/06/29 10:06:45;;;;;;;10.02;2.50;;;;;;;37.31;34.11;100103.09;4393812;32;20090;-71
2022/06/29 10:09:14;;;;;;;11.23;2.60;;;;;;;37.53;33.32;100102.06;4407858;32;20105;-70
2022/06/29 10:15:41;;;;;;;5.20;2.70;;;;;;;38.05;32.74;100099.00;4407366;32;20101;-71
2022/06/29 10:18:29;;;;;;;6.65;2.50;;;;;;;38.32;33.59;100094.47;4407338;32;20815;-72
2022/06/29 10:20:58;;;;;;;11.88;3.22;;;;;;;38.54;33.69;100087.78;4397488;32;20172;-71
2022/06/29 10:23:59;;;;;;;9.15;3.17;;;;;;;38.17;33.85;100086.38;4407436;32;20155;-71
2022/06/29 10:26:35;;;;;;;7.25;3.10;;;;;;;38.63;33.18;100082.94;4367717;32;20098;-72
2022/06/29 10:29:05;;;;;;;13.57;3.40;;;;;;;38.70;33.10;100081.03;4407359;32;20176;-72
2022/06/29 10:31:54;;;;;;;9.40;4.30;;;;;;;38.76;32.84;100080.19;4407464;32;20186;-72
2022/06/29 10:34:34;;;;;;;19.87;3.90;;;;;;;39.01;33.06;100079.59;4406898;32;20089;-71
2022/06/29 10:37:15;;;;;;;7.18;2.90;;;;;;;39.29;32.40;100065.62;4406725;32;20132;-72
2022/06/29 10:39:45;;;;;;;17.35;3.30;;;;;;;39.56;32.09;100063.69;4407597;32;20102;-71
2022/06/29 10:45:16;;;;;;;4.72;2.80;;;;;;;39.21;32.54;100063.91;4408163;32;20520;-71
2022/06/29 10:47:56;;;;;;;13.25;3.08;;;;;;;39.43;31.19;100062.66;4408775;32;20098;-70
2022/06/29 10:50:31;;;;;;;2.97;2.75;;;;;;;39.54;31.13;100063.91;4406409;32;20856;-71
2022/06/29 10:53:10;;;;;;;18.60;3.00;;;;;;;39.23;31.60;100049.94;4408022;32;20799;-71
2022/06/29 10:55:43;;;;;;;5.85;2.80;;;;;;;39.48;30.99;100047.41;4406606;32;20529;-71
2022/06/29 10:58:10;;;;;;;4.07;2.72;;;;;;;39.68;30.31;100049.03;4407408;32;20121;-72
2022/06/29 11:00:43;;;;;;;17.52;3.20;;;;;;;40.01;30.11;100044.50;4405853;32;20137;-72
2022/06/29 11:03:30;;;;;;;3.25;2.35;;;;;;;39.82;30.31;100033.28;4406087;32;20139;-72
2022/06/29 11:17:03;;;;;;;8.27;3.40;;;;;;;40.68;28.62;100017.41;4405797;32;20576;-72
2022/06/29 11:19:36;;;;;;;5.60;2.72;;;;;;;40.80;28.69;100019.19;4405598;32;20353;-72
2022/06/29 11:22:07;;;;;;;5.10;3.00;;;;;;;40.75;27.61;100019.03;4404530;32;20098;-72
2022/06/29 11:24:58;;;;;;;4.78;2.62;;;;;;;40.92;28.19;100010.16;4405657;32;20584;-72
2022/06/29 11:27:32;;;;;;;14.75;3.25;;;;;;;41.26;27.59;100006.91;4404804;32;20102;-72
2022/06/29 11:30:00;;;;;;;5.37;2.70;;;;;;;41.80;26.47;100007.16;4405515;32;20478;-72
2022/06/29 11:32:37;;;;;;;7.30;2.30;;;;;;;42.00;26.59;100001.41;4405814;32;20125;-71
2022/06/29 11:35:06;;;;;;;7.45;2.53;;;;;;;42.88;24.98;99994.37;4407094;32;20696;-71
2022/06/29 11:38:01;;;;;;;15.33;3.37;;;;;;;44.39;24.34;100002.69;4408941;32;20093;-71
2022/06/29 11:40:41;;;;;;;15.90;2.85;;;;;;;44.98;23.78;99988.41;4409365;32;20111;-72
2022/06/29 11:43:14;;;;;;;2.83;2.35;;;;;;;45.84;22.59;99988.88;4403929;32;20082;-72
2022/06/29 11:45:47;;;;;;;7.30;2.97;;;;;;;46.89;21.58;99980.97;4407625;32;20500;-72
2022/06/29 11:48:21;;;;;;;6.75;2.50;;;;;;;47.58;20.95;99982.00;4408385;32;20107;-72
2022/06/29 11:50:51;;;;;;;10.38;2.33;;;;;;;46.79;20.94;99978.13;4408208;32;20789;-71
2022/06/29 11:53:37;;;;;;;13.88;2.37;;;;;;;47.71;21.03;99972.25;4408938;32;20129;-72
2022/06/29 11:56:16;;;;;;;8.60;2.35;;;;;;;47.83;20.34;99972.91;4405395;32;20514;-72
2022/06/29 11:58:49;;;;;;;3.22;2.28;;;;;;;48.16;19.90;99968.81;4369147;32;20094;-72